createdAt,value
2022-12-22T00:00:00.207Z,8.78
2022-12-22T00:00:59.703Z,8.74
2022-12-22T00:02:00.748Z,8.79
2022-12-22T00:03:00.613Z,8.79
2022-12-22T00:04:00.927Z,8.85
2022-12-22T00:05:00.252Z,8.87
2022-12-22T00:06:00.278Z,8.74
2022-12-22T00:07:00.284Z,8.76
2022-12-22T00:08:00.293Z,8.79
2022-12-22T00:09:08.468Z,8.78
2022-12-22T00:10:00.368Z,8.84
2022-12-22T00:11:00.344Z,8.79
2022-12-22T00:12:00.396Z,8.81
2022-12-22T00:13:00.382Z,8.76
2022-12-22T00:14:00.420Z,8.79
2022-12-22T00:15:00.722Z,8.79
2022-12-22T00:16:00.159Z,8.84
2022-12-22T00:17:00.563Z,8.85
2022-12-22T00:18:00.184Z,8.84
2022-12-22T00:19:00.483Z,8.74
2022-12-22T00:20:00.473Z,8.87
2022-12-22T00:21:00.502Z,8.78
2022-12-22T00:22:00.244Z,8.82
2022-12-22T00:23:00.003Z,8.76
2022-12-22T00:24:00.547Z,8.87
2022-12-22T00:25:00.552Z,8.88
2022-12-22T00:26:00.307Z,8.87
2022-12-22T00:27:00.706Z,8.87
2022-12-22T00:28:00.629Z,8.87
2022-12-22T00:29:00.618Z,8.81
2022-12-22T00:30:00.638Z,8.74
2022-12-22T00:31:00.860Z,8.84
2022-12-22T00:32:00.670Z,8.85
2022-12-22T00:33:00.417Z,8.85
2022-12-22T00:34:00.434Z,8.78
2022-12-22T00:35:00.791Z,8.84
2022-12-22T00:36:00.716Z,8.74
2022-12-22T00:37:00.726Z,8.76
2022-12-22T00:38:00.757Z,8.84
2022-12-22T00:39:00.750Z,8.79
2022-12-22T00:40:00.513Z,8.87
2022-12-22T00:41:00.789Z,8.79
2022-12-22T00:42:00.820Z,8.85
2022-12-22T00:43:00.567Z,8.81
2022-12-22T00:44:00.889Z,8.88
2022-12-22T00:45:00.592Z,8.88
2022-12-22T00:46:00.831Z,8.87
2022-12-22T00:47:00.943Z,8.88
2022-12-22T00:48:00.918Z,8.89
2022-12-22T00:49:00.955Z,8.88
2022-12-22T00:50:00.418Z,8.79
2022-12-22T00:51:00.973Z,8.74
2022-12-22T00:52:00.957Z,8.85
2022-12-22T00:53:00.708Z,8.84
2022-12-22T00:54:00.757Z,8.85
2022-12-22T00:55:01.214Z,8.88
2022-12-22T00:56:01.007Z,8.89
2022-12-22T00:57:01.033Z,8.88
2022-12-22T00:58:00.784Z,8.71
2022-12-22T00:59:01.131Z,8.88
2022-12-22T01:00:00.847Z,8.85
2022-12-22T01:01:01.390Z,8.78
2022-12-22T01:02:01.671Z,8.91
2022-12-22T01:03:01.198Z,8.87
2022-12-22T01:04:00.872Z,8.87
2022-12-22T01:05:01.162Z,8.85
2022-12-22T01:06:00.918Z,8.89
2022-12-22T01:07:01.331Z,8.78
2022-12-22T01:08:01.220Z,8.76
2022-12-22T01:09:00.969Z,8.79
2022-12-22T01:10:01.240Z,8.84
2022-12-22T01:11:01.259Z,8.79
2022-12-22T01:12:01.272Z,8.76
2022-12-22T01:13:01.303Z,8.78
2022-12-22T01:14:01.300Z,8.78
2022-12-22T01:15:01.473Z,8.79
2022-12-22T01:16:01.482Z,8.71
2022-12-22T01:17:01.338Z,8.84
2022-12-22T01:18:01.095Z,8.81
2022-12-22T01:19:01.414Z,8.73
2022-12-22T01:20:01.398Z,8.71
2022-12-22T01:21:01.403Z,8.71
2022-12-22T01:22:01.397Z,8.78
2022-12-22T01:23:01.201Z,8.82
2022-12-22T01:24:01.189Z,8.81
2022-12-22T01:25:01.460Z,8.82
2022-12-22T01:26:01.622Z,8.84
2022-12-22T01:27:01.493Z,8.73
2022-12-22T01:28:01.506Z,8.71
2022-12-22T01:29:01.526Z,8.79
2022-12-22T01:30:01.547Z,8.74
2022-12-22T01:31:01.858Z,8.82
2022-12-22T01:32:01.588Z,8.85
2022-12-22T01:33:01.582Z,8.78
2022-12-22T01:34:01.606Z,8.84
2022-12-22T01:35:01.393Z,8.78
2022-12-22T01:36:01.622Z,8.84
2022-12-22T01:37:01.652Z,8.78
2022-12-22T01:38:01.401Z,8.76
2022-12-22T01:39:01.694Z,8.87
2022-12-22T01:40:01.449Z,8.76
2022-12-22T01:41:01.706Z,8.78
2022-12-22T01:42:01.453Z,8.82
2022-12-22T01:43:01.728Z,8.78
2022-12-22T01:44:01.499Z,8.81
2022-12-22T01:45:01.768Z,8.88
2022-12-22T01:46:02.045Z,8.84
2022-12-22T01:47:01.816Z,8.71
2022-12-22T01:48:01.823Z,8.79
2022-12-22T01:49:01.563Z,8.82
2022-12-22T01:50:01.860Z,8.88
2022-12-22T01:51:01.869Z,8.78
2022-12-22T01:52:01.611Z,8.73
2022-12-22T01:53:01.888Z,8.79
2022-12-22T01:54:01.898Z,8.74
2022-12-22T01:55:01.942Z,8.84
2022-12-22T01:56:01.930Z,8.79
2022-12-22T01:57:01.959Z,8.79
2022-12-22T01:58:01.969Z,8.82
2022-12-22T01:59:01.811Z,8.82
2022-12-22T02:00:01.921Z,8.84
2022-12-22T02:01:01.730Z,8.78
2022-12-22T02:02:02.574Z,8.79
2022-12-22T02:03:02.707Z,8.81
2022-12-22T02:04:02.284Z,8.81
2022-12-22T02:05:02.069Z,8.74
2022-12-22T02:06:02.078Z,8.73
2022-12-22T02:07:05.454Z,8.79
2022-12-22T02:08:02.100Z,8.81
2022-12-22T02:09:02.129Z,8.78
2022-12-22T02:10:02.165Z,8.76
2022-12-22T02:11:02.191Z,8.78
2022-12-22T02:12:01.934Z,8.74
2022-12-22T02:13:02.175Z,8.78
2022-12-22T02:14:02.199Z,8.87
2022-12-22T02:15:02.667Z,8.82
2022-12-22T02:16:02.435Z,8.78
2022-12-22T02:17:02.237Z,8.76
2022-12-22T02:18:02.260Z,8.79
2022-12-22T02:19:02.298Z,8.74
2022-12-22T02:20:02.358Z,8.79
2022-12-22T02:21:02.291Z,8.78
2022-12-22T02:22:02.318Z,8.87
2022-12-22T02:23:02.105Z,8.78
2022-12-22T02:24:02.403Z,8.76
2022-12-22T02:25:02.400Z,8.82
2022-12-22T02:26:02.397Z,8.74
2022-12-22T02:27:02.448Z,8.78
2022-12-22T02:28:02.416Z,8.78
2022-12-22T02:29:02.164Z,8.82
2022-12-22T02:30:02.459Z,8.76
2022-12-22T02:31:02.461Z,8.76
2022-12-22T02:32:02.221Z,8.76
2022-12-22T02:33:12.047Z,8.71
2022-12-22T02:34:02.239Z,8.73
2022-12-22T02:35:02.283Z,8.76
2022-12-22T02:36:02.556Z,8.87
2022-12-22T02:37:02.946Z,8.78
2022-12-22T02:38:02.319Z,8.76
2022-12-22T02:39:02.642Z,8.73
2022-12-22T02:40:02.608Z,8.78
2022-12-22T02:41:02.353Z,8.74
2022-12-22T02:42:02.629Z,8.84
2022-12-22T02:43:02.714Z,8.79
2022-12-22T02:44:02.667Z,8.78
2022-12-22T02:45:02.678Z,8.74
2022-12-22T02:46:02.701Z,8.76
2022-12-22T02:47:03.028Z,8.87
2022-12-22T02:48:02.627Z,8.78
2022-12-22T02:49:02.738Z,8.81
2022-12-22T02:50:02.969Z,8.78
2022-12-22T02:51:02.957Z,8.82
2022-12-22T02:52:02.978Z,8.81
2022-12-22T02:53:02.898Z,8.76
2022-12-22T02:54:02.565Z,8.84
2022-12-22T02:55:02.615Z,8.89
2022-12-22T02:56:03.095Z,8.81
2022-12-22T02:57:02.613Z,8.73
2022-12-22T02:58:02.923Z,8.82
2022-12-22T02:59:02.904Z,8.82
2022-12-22T03:00:02.990Z,8.79
2022-12-22T03:01:02.966Z,8.78
2022-12-22T03:02:03.611Z,8.76
2022-12-22T03:03:03.754Z,8.78
2022-12-22T03:04:02.974Z,8.91
2022-12-22T03:05:02.987Z,8.79
2022-12-22T03:06:03.020Z,8.74
2022-12-22T03:07:03.007Z,8.76
2022-12-22T03:08:11.258Z,8.79
2022-12-22T03:09:03.032Z,8.78
2022-12-22T03:10:03.069Z,8.85
2022-12-22T03:11:02.972Z,8.76
2022-12-22T03:12:02.975Z,8.73
2022-12-22T03:13:03.114Z,8.76
2022-12-22T03:14:02.945Z,8.81
2022-12-22T03:15:03.513Z,8.78
2022-12-22T03:16:03.045Z,8.81
2022-12-22T03:17:03.157Z,8.76
2022-12-22T03:18:02.655Z,8.79
2022-12-22T03:19:02.928Z,8.79
2022-12-22T03:20:03.211Z,8.87
2022-12-22T03:21:02.951Z,8.79
2022-12-22T03:22:03.265Z,8.88
2022-12-22T03:23:03.253Z,8.78
2022-12-22T03:24:03.296Z,8.81
2022-12-22T03:25:03.282Z,8.89
2022-12-22T03:26:03.285Z,8.79
2022-12-22T03:27:03.069Z,8.78
2022-12-22T03:28:03.318Z,8.82
2022-12-22T03:29:03.321Z,8.79
2022-12-22T03:30:03.108Z,8.81
2022-12-22T03:31:03.327Z,8.81
2022-12-22T03:32:03.687Z,8.79
2022-12-22T03:33:03.130Z,8.81
2022-12-22T03:34:03.410Z,8.78
2022-12-22T03:35:03.187Z,8.82
2022-12-22T03:36:03.432Z,8.82
2022-12-22T03:37:03.475Z,8.7
2022-12-22T03:38:03.236Z,8.78
2022-12-22T03:39:03.494Z,8.89
2022-12-22T03:40:03.546Z,8.82
2022-12-22T03:41:03.513Z,8.81
2022-12-22T03:42:03.517Z,8.79
2022-12-22T03:43:03.307Z,8.87
2022-12-22T03:44:03.555Z,8.76
2022-12-22T03:45:03.324Z,8.73
2022-12-22T03:46:03.681Z,8.78
2022-12-22T03:47:03.875Z,8.81
2022-12-22T03:48:03.624Z,8.78
2022-12-22T03:49:03.631Z,8.74
2022-12-22T03:50:03.385Z,8.78
2022-12-22T03:51:03.644Z,8.78
2022-12-22T03:52:03.427Z,8.74
2022-12-22T03:53:03.689Z,8.82
2022-12-22T03:54:03.461Z,8.82
2022-12-22T03:55:03.731Z,8.78
2022-12-22T03:56:10.768Z,8.76
2022-12-22T03:57:03.764Z,8.73
2022-12-22T03:58:03.521Z,8.74
2022-12-22T03:59:03.823Z,8.78
2022-12-22T04:00:03.817Z,8.78
2022-12-22T04:01:04.016Z,8.87
2022-12-22T04:02:04.635Z,8.74
2022-12-22T04:03:04.063Z,8.87
2022-12-22T04:04:03.924Z,8.74
2022-12-22T04:05:03.900Z,8.87
2022-12-22T04:06:03.893Z,8.76
2022-12-22T04:07:03.926Z,8.88
2022-12-22T04:08:03.956Z,8.84
2022-12-22T04:09:03.995Z,8.79
2022-12-22T04:10:03.995Z,8.79
2022-12-22T04:11:03.965Z,8.74
2022-12-22T04:12:04.006Z,8.79
2022-12-22T04:13:04.108Z,8.84
2022-12-22T04:14:03.739Z,8.74
2022-12-22T04:15:04.482Z,8.78
2022-12-22T04:16:04.183Z,8.81
2022-12-22T04:17:04.291Z,8.79
2022-12-22T04:18:04.226Z,8.87
2022-12-22T04:19:04.131Z,8.87
2022-12-22T04:20:04.173Z,8.76
2022-12-22T04:21:03.599Z,8.76
2022-12-22T04:22:03.908Z,8.82
2022-12-22T04:23:03.991Z,8.78
2022-12-22T04:24:04.172Z,8.73
2022-12-22T04:25:04.187Z,8.84
2022-12-22T04:26:03.939Z,8.78
2022-12-22T04:27:04.208Z,8.84
2022-12-22T04:28:03.979Z,8.78
2022-12-22T04:29:04.247Z,8.85
2022-12-22T04:30:04.005Z,8.78
2022-12-22T04:31:04.033Z,8.78
2022-12-22T04:32:04.525Z,8.76
2022-12-22T04:33:04.045Z,8.78
2022-12-22T04:34:04.075Z,8.82
2022-12-22T04:35:04.363Z,8.76
2022-12-22T04:36:04.079Z,8.76
2022-12-22T04:37:20.288Z,8.78
2022-12-22T04:38:04.113Z,8.84
2022-12-22T04:39:04.394Z,8.82
2022-12-22T04:40:04.425Z,8.82
2022-12-22T04:41:04.459Z,8.81
2022-12-22T04:42:04.432Z,8.81
2022-12-22T04:43:04.449Z,8.78
2022-12-22T04:44:04.493Z,8.87
2022-12-22T04:45:04.490Z,8.87
2022-12-22T04:46:04.569Z,8.78
2022-12-22T04:47:04.548Z,8.87
2022-12-22T04:48:04.249Z,8.78
2022-12-22T04:49:05.301Z,8.79
2022-12-22T04:50:04.588Z,8.82
2022-12-22T04:51:04.603Z,8.87
2022-12-22T04:52:04.611Z,8.82
2022-12-22T04:53:04.602Z,8.79
2022-12-22T04:54:04.626Z,8.76
2022-12-22T04:55:04.637Z,8.79
2022-12-22T04:56:04.657Z,8.73
2022-12-22T04:57:04.398Z,8.78
2022-12-22T04:58:04.671Z,8.78
2022-12-22T04:59:04.443Z,8.74
2022-12-22T05:00:04.484Z,8.74
2022-12-22T05:01:04.935Z,8.78
2022-12-22T05:02:05.187Z,8.76
2022-12-22T05:03:05.170Z,8.76
2022-12-22T05:04:04.756Z,8.78
2022-12-22T05:05:04.514Z,8.81
2022-12-22T05:06:04.796Z,8.82
2022-12-22T05:07:04.895Z,8.84
2022-12-22T05:08:04.570Z,8.84
2022-12-22T05:09:04.860Z,8.81
2022-12-22T05:10:04.867Z,8.81
2022-12-22T05:11:04.624Z,8.81
2022-12-22T05:12:04.938Z,8.79
2022-12-22T05:13:04.922Z,8.84
2022-12-22T05:14:11.610Z,8.84
2022-12-22T05:15:05.147Z,8.78
2022-12-22T05:16:05.009Z,8.78
2022-12-22T05:17:05.247Z,8.79
2022-12-22T05:18:05.016Z,8.73
2022-12-22T05:19:04.762Z,8.84
2022-12-22T05:20:05.065Z,8.74
2022-12-22T05:21:04.748Z,8.79
2022-12-22T05:22:05.039Z,8.78
2022-12-22T05:23:05.088Z,8.79
2022-12-22T05:24:05.079Z,8.76
2022-12-22T05:25:05.085Z,8.78
2022-12-22T05:26:05.126Z,8.84
2022-12-22T05:27:04.866Z,8.76
2022-12-22T05:28:04.646Z,8.87
2022-12-22T05:29:04.933Z,8.81
2022-12-22T05:30:04.942Z,8.81
2022-12-22T05:31:05.609Z,8.82
2022-12-22T05:32:05.423Z,8.84
2022-12-22T05:33:05.411Z,8.7
2022-12-22T05:34:04.981Z,8.88
2022-12-22T05:35:05.156Z,8.82
2022-12-22T05:36:05.392Z,8.84
2022-12-22T05:37:05.115Z,8.81
2022-12-22T05:38:05.067Z,8.79
2022-12-22T05:39:05.358Z,8.79
2022-12-22T05:40:05.148Z,8.82
2022-12-22T05:41:09.269Z,8.87
2022-12-22T05:42:04.841Z,8.84
2022-12-22T05:43:05.349Z,8.73
2022-12-22T05:44:05.130Z,8.76
2022-12-22T05:45:05.432Z,8.74
2022-12-22T05:46:05.624Z,8.81
2022-12-22T05:47:05.424Z,8.71
2022-12-22T05:48:05.215Z,8.82
2022-12-22T05:49:05.448Z,8.81
2022-12-22T05:50:05.442Z,8.79
2022-12-22T05:51:05.524Z,8.87
2022-12-22T05:52:05.497Z,8.84
2022-12-22T05:53:05.603Z,8.84
2022-12-22T05:54:05.411Z,8.73
2022-12-22T05:55:05.574Z,8.79
2022-12-22T05:56:05.605Z,8.84
2022-12-22T05:57:05.354Z,8.87
2022-12-22T05:58:05.796Z,8.85
2022-12-22T05:59:05.593Z,8.81
2022-12-22T06:00:05.350Z,8.82
2022-12-22T06:01:05.636Z,8.87
2022-12-22T06:02:06.185Z,8.78
2022-12-22T06:03:06.144Z,8.71
2022-12-22T06:04:06.396Z,8.87
2022-12-22T06:05:05.677Z,8.88
2022-12-22T06:06:05.698Z,8.91
2022-12-22T06:07:05.494Z,8.82
2022-12-22T06:08:05.740Z,8.87
2022-12-22T06:09:05.507Z,8.88
2022-12-22T06:10:15.167Z,8.85
2022-12-22T06:11:05.552Z,8.89
2022-12-22T06:12:05.539Z,8.85
2022-12-22T06:13:05.796Z,8.89
2022-12-22T06:14:05.817Z,8.88
2022-12-22T06:15:05.759Z,8.88
2022-12-22T06:16:05.971Z,8.87
2022-12-22T06:17:05.603Z,8.88
2022-12-22T06:18:05.872Z,8.85
2022-12-22T06:19:05.884Z,8.91
2022-12-22T06:20:05.951Z,8.81
2022-12-22T06:21:05.927Z,8.84
2022-12-22T06:22:05.928Z,8.84
2022-12-22T06:23:06.026Z,8.73
2022-12-22T06:24:05.970Z,8.85
2022-12-22T06:25:05.470Z,8.82
2022-12-22T06:26:06.056Z,8.76
2022-12-22T06:27:05.783Z,8.91
2022-12-22T06:28:06.030Z,8.91
2022-12-22T06:29:06.081Z,8.84
2022-12-22T06:30:05.808Z,8.82
2022-12-22T06:31:06.235Z,8.89
2022-12-22T06:32:05.853Z,8.85
2022-12-22T06:33:06.021Z,8.88
2022-12-22T06:34:06.117Z,8.85
2022-12-22T06:35:06.172Z,8.89
2022-12-22T06:36:05.911Z,8.85
2022-12-22T06:37:06.165Z,8.88
2022-12-22T06:38:05.927Z,8.85
2022-12-22T06:39:06.221Z,8.88
2022-12-22T06:40:05.953Z,8.91
2022-12-22T06:41:06.565Z,8.89
2022-12-22T06:42:06.259Z,8.82
2022-12-22T06:43:13.539Z,8.81
2022-12-22T06:44:06.007Z,8.94
2022-12-22T06:45:06.030Z,8.87
2022-12-22T06:46:06.346Z,8.85
2022-12-22T06:47:06.395Z,8.87
2022-12-22T06:48:06.333Z,8.89
2022-12-22T06:49:06.336Z,8.85
2022-12-22T06:50:06.388Z,8.87
2022-12-22T06:51:06.399Z,8.91
2022-12-22T06:52:06.421Z,8.92
2022-12-22T06:53:05.893Z,8.95
2022-12-22T06:54:05.949Z,8.88
2022-12-22T06:55:06.482Z,8.84
2022-12-22T06:56:06.442Z,8.87
2022-12-22T06:57:06.451Z,8.88
2022-12-22T06:58:06.519Z,8.88
2022-12-22T06:59:05.968Z,8.82
2022-12-22T07:00:06.478Z,8.88
2022-12-22T07:01:06.541Z,8.76
2022-12-22T07:02:07.127Z,8.84
2022-12-22T07:03:07.236Z,8.79
2022-12-22T07:04:06.544Z,8.85
2022-12-22T07:05:06.325Z,8.76
2022-12-22T07:06:06.611Z,8.82
2022-12-22T07:07:06.609Z,8.87
2022-12-22T07:08:13.186Z,8.73
2022-12-22T07:09:06.644Z,8.84
2022-12-22T07:10:06.687Z,8.89
2022-12-22T07:11:06.173Z,8.91
2022-12-22T07:12:06.693Z,8.92
2022-12-22T07:13:06.466Z,8.84
2022-12-22T07:14:06.748Z,8.84
2022-12-22T07:15:07.193Z,8.91
2022-12-22T07:16:07.155Z,8.91
2022-12-22T07:17:06.520Z,8.85
2022-12-22T07:18:06.803Z,8.85
2022-12-22T07:19:06.557Z,8.87
2022-12-22T07:20:06.835Z,8.88
2022-12-22T07:21:06.870Z,8.85
2022-12-22T07:22:06.588Z,8.79
2022-12-22T07:23:06.862Z,8.85
2022-12-22T07:24:06.953Z,8.88
2022-12-22T07:25:06.876Z,8.89
2022-12-22T07:26:06.917Z,8.89
2022-12-22T07:27:06.702Z,8.85
2022-12-22T07:28:06.949Z,8.85
2022-12-22T07:29:06.695Z,8.85
2022-12-22T07:30:06.772Z,8.85
2022-12-22T07:31:07.150Z,8.84
2022-12-22T07:32:06.750Z,8.87
2022-12-22T07:33:07.031Z,8.87
2022-12-22T07:34:07.029Z,8.85
2022-12-22T07:35:10.618Z,8.84
2022-12-22T07:36:07.103Z,8.85
2022-12-22T07:37:06.832Z,8.88
2022-12-22T07:38:07.107Z,8.85
2022-12-22T07:39:06.834Z,8.91
2022-12-22T07:40:07.189Z,8.87
2022-12-22T07:41:09.894Z,8.88
2022-12-22T07:42:07.164Z,8.92
2022-12-22T07:43:06.941Z,8.89
2022-12-22T07:44:07.179Z,8.89
2022-12-22T07:45:07.250Z,8.95
2022-12-22T07:46:07.395Z,8.89
2022-12-22T07:47:07.499Z,8.92
2022-12-22T07:48:07.273Z,8.88
2022-12-22T07:49:07.259Z,8.89
2022-12-22T07:50:07.271Z,8.87
2022-12-22T07:51:07.289Z,8.92
2022-12-22T07:52:07.053Z,8.89
2022-12-22T07:53:07.307Z,8.85
2022-12-22T07:54:07.325Z,8.91
2022-12-22T07:55:07.356Z,8.89
2022-12-22T07:56:07.410Z,8.85
2022-12-22T07:57:07.380Z,8.89
2022-12-22T07:58:07.398Z,8.95
2022-12-22T07:59:07.431Z,8.87
2022-12-22T08:00:07.431Z,8.85
2022-12-22T08:01:07.435Z,8.88
2022-12-22T08:02:08.086Z,8.91
2022-12-22T08:03:08.173Z,8.85
2022-12-22T08:04:07.232Z,8.87
2022-12-22T08:05:07.767Z,8.92
2022-12-22T08:06:07.532Z,8.87
2022-12-22T08:07:07.548Z,8.94
2022-12-22T08:08:07.299Z,8.91
2022-12-22T08:09:07.555Z,8.85
2022-12-22T08:10:07.601Z,8.85
2022-12-22T08:11:07.375Z,8.84
2022-12-22T08:12:07.636Z,8.89
2022-12-22T08:13:08.084Z,8.92
2022-12-22T08:14:07.561Z,8.91
2022-12-22T08:15:08.063Z,8.91
2022-12-22T08:16:08.030Z,8.95
2022-12-22T08:17:07.440Z,8.88
2022-12-22T08:18:07.823Z,8.92
2022-12-22T08:19:07.713Z,8.95
2022-12-22T08:20:07.848Z,8.91
2022-12-22T08:21:07.793Z,8.91
2022-12-22T08:22:07.344Z,8.92
2022-12-22T08:23:07.640Z,8.91
2022-12-22T08:24:07.540Z,8.94
2022-12-22T08:25:07.569Z,8.89
2022-12-22T08:26:07.802Z,8.85
2022-12-22T08:27:07.573Z,8.88
2022-12-22T08:28:07.859Z,8.92
2022-12-22T08:29:07.583Z,8.92
2022-12-22T08:30:07.871Z,8.91
2022-12-22T08:31:08.047Z,8.87
2022-12-22T08:32:07.796Z,8.88
2022-12-22T08:33:07.681Z,8.94
2022-12-22T08:34:07.967Z,8.92
2022-12-22T08:35:07.971Z,8.95
2022-12-22T08:36:13.168Z,8.92
2022-12-22T08:37:07.970Z,8.89
2022-12-22T08:38:07.990Z,8.91
2022-12-22T08:39:07.742Z,8.92
2022-12-22T08:40:08.058Z,8.88
2022-12-22T08:41:07.806Z,8.94
2022-12-22T08:42:08.041Z,8.94
2022-12-22T08:43:08.068Z,8.89
2022-12-22T08:44:07.853Z,8.91
2022-12-22T08:45:07.835Z,8.89
2022-12-22T08:46:08.117Z,8.94
2022-12-22T08:47:17.038Z,8.94
2022-12-22T08:48:08.139Z,8.89
2022-12-22T08:49:08.143Z,8.94
2022-12-22T08:50:08.223Z,8.95
2022-12-22T08:51:07.663Z,8.92
2022-12-22T08:52:10.527Z,8.95
2022-12-22T08:53:18.686Z,8.94
2022-12-22T08:54:12.504Z,8.91
2022-12-22T08:55:12.536Z,8.97
2022-12-22T08:56:12.522Z,8.95
2022-12-22T08:57:12.278Z,8.89
2022-12-22T08:58:12.575Z,8.91
2022-12-22T08:59:12.688Z,8.89
2022-12-22T09:00:12.344Z,8.89
2022-12-22T09:01:13.055Z,8.99
2022-12-22T09:02:13.070Z,9
2022-12-22T09:03:13.313Z,8.95
2022-12-22T09:04:12.669Z,8.99
2022-12-22T09:05:12.675Z,8.95
2022-12-22T09:06:12.954Z,8.92
2022-12-22T09:07:12.723Z,9.04
2022-12-22T09:08:12.191Z,9.03
2022-12-22T09:09:12.887Z,8.95
2022-12-22T09:10:12.488Z,8.97
2022-12-22T09:11:12.965Z,8.95
2022-12-22T09:12:12.986Z,9
2022-12-22T09:13:12.890Z,8.99
2022-12-22T09:14:12.558Z,8.95
2022-12-22T09:15:13.397Z,8.95
2022-12-22T09:16:13.239Z,8.99
2022-12-22T09:17:12.966Z,9
2022-12-22T09:18:12.612Z,8.99
2022-12-22T09:19:12.993Z,8.99
2022-12-22T09:20:13.008Z,9.02
2022-12-22T09:21:12.942Z,8.97
2022-12-22T09:22:12.918Z,8.92
2022-12-22T09:23:12.981Z,8.97
2022-12-22T09:24:12.689Z,9.02
2022-12-22T09:25:12.967Z,8.94
2022-12-22T09:26:12.980Z,8.97
2022-12-22T09:27:13.002Z,8.94
2022-12-22T09:28:13.066Z,9.06
2022-12-22T09:29:13.037Z,9.04
2022-12-22T09:30:13.029Z,8.99
2022-12-22T09:31:13.215Z,8.99
2022-12-22T09:32:13.282Z,9.03
2022-12-22T09:33:13.082Z,9.02
2022-12-22T09:34:21.261Z,9
2022-12-22T09:35:13.156Z,9.02
2022-12-22T09:36:12.877Z,9.03
2022-12-22T09:37:13.179Z,9
2022-12-22T09:38:13.149Z,9
2022-12-22T09:39:12.991Z,8.99
2022-12-22T09:40:13.007Z,8.99
2022-12-22T09:41:13.216Z,8.97
2022-12-22T09:42:12.975Z,8.94
2022-12-22T09:43:13.235Z,8.99
2022-12-22T09:44:13.245Z,9
2022-12-22T09:45:19.881Z,9
2022-12-22T09:46:13.328Z,9.02
2022-12-22T09:47:13.317Z,8.92
2022-12-22T09:48:12.918Z,8.95
2022-12-22T09:49:13.335Z,9.02
2022-12-22T09:50:13.371Z,8.92
2022-12-22T09:51:13.365Z,8.91
2022-12-22T09:52:13.369Z,9
2022-12-22T09:53:13.435Z,8.99
2022-12-22T09:54:13.417Z,9.08
2022-12-22T09:55:13.426Z,9.02
2022-12-22T09:56:13.436Z,8.99
2022-12-22T09:57:13.468Z,9.1
2022-12-22T09:58:20.766Z,9.04
2022-12-22T09:59:13.217Z,8.97
2022-12-22T10:00:13.509Z,9.04
2022-12-22T10:01:13.491Z,9.08
2022-12-22T10:02:13.599Z,9.04
2022-12-22T10:03:13.576Z,9.04
2022-12-22T10:04:13.570Z,9.04
2022-12-22T10:05:13.315Z,9.06
2022-12-22T10:06:13.684Z,9.1
2022-12-22T10:07:13.627Z,9.04
2022-12-22T10:08:13.625Z,9.1
2022-12-22T10:09:53.186Z,9.08
2022-12-22T10:10:13.399Z,9.13
2022-12-22T10:11:13.401Z,9.04
2022-12-22T10:12:13.677Z,9.08
2022-12-22T10:13:13.710Z,9.08
2022-12-22T10:14:13.730Z,9.1
2022-12-22T10:15:21.938Z,9.04
2022-12-22T10:16:13.554Z,9.06
2022-12-22T10:17:13.708Z,9.03
2022-12-22T10:18:13.922Z,9.04
2022-12-22T10:19:18.217Z,9.04
2022-12-22T10:20:13.581Z,9.08
2022-12-22T10:21:13.825Z,9.08
2022-12-22T10:22:13.856Z,9.06
2022-12-22T10:23:13.850Z,9.08
2022-12-22T10:24:13.875Z,9.04
2022-12-22T10:25:13.661Z,9.02
2022-12-22T10:26:43.633Z,9.04
2022-12-22T10:27:13.919Z,9.08
2022-12-22T10:28:13.658Z,9.08
2022-12-22T10:29:13.971Z,9.04
2022-12-22T10:30:13.953Z,9.08
2022-12-22T10:31:14.051Z,9.04
2022-12-22T10:32:14.389Z,9.04
2022-12-22T10:33:14.004Z,9.06
2022-12-22T10:34:13.490Z,9.04
2022-12-22T10:35:14.078Z,9.04
2022-12-22T10:36:14.058Z,9.08
2022-12-22T10:37:14.069Z,9.1
2022-12-22T10:38:27.193Z,9.1
2022-12-22T10:39:14.336Z,9
2022-12-22T10:40:14.029Z,9.11
2022-12-22T10:41:13.902Z,9.1
2022-12-22T10:42:14.138Z,9.1
2022-12-22T10:43:13.906Z,9.06
2022-12-22T10:44:14.237Z,9.1
2022-12-22T10:45:14.177Z,9.08
2022-12-22T10:46:14.206Z,9.13
2022-12-22T10:47:21.949Z,9.03
2022-12-22T10:48:13.730Z,9.1
2022-12-22T10:49:14.254Z,9.06
2022-12-22T10:50:14.289Z,9.19
2022-12-22T10:51:14.312Z,9
2022-12-22T10:52:14.342Z,9.1
2022-12-22T10:53:14.318Z,9
2022-12-22T10:54:14.350Z,9.04
2022-12-22T10:55:14.091Z,9.1
2022-12-22T10:56:14.399Z,9.06
2022-12-22T10:57:14.512Z,9.1
2022-12-22T10:58:14.389Z,9.04
2022-12-22T10:59:14.492Z,9.06
2022-12-22T11:00:14.200Z,9.03
2022-12-22T11:01:14.160Z,9.08
2022-12-22T11:02:15.203Z,9.06
2022-12-22T11:03:18.981Z,9.11
2022-12-22T11:04:14.678Z,9.06
2022-12-22T11:05:14.210Z,9.11
2022-12-22T11:06:14.517Z,9.21
2022-12-22T11:07:14.532Z,9.14
2022-12-22T11:08:14.262Z,9.1
2022-12-22T11:09:38.095Z,9.21
2022-12-22T11:10:14.642Z,9.18
2022-12-22T11:11:14.584Z,9.22
2022-12-22T11:12:14.328Z,9.1
2022-12-22T11:13:14.645Z,9.18
2022-12-22T11:14:14.393Z,9.21
2022-12-22T11:15:18.616Z,9.06
2022-12-22T11:16:14.837Z,9.19
2022-12-22T11:17:14.678Z,9.16
2022-12-22T11:18:14.689Z,9.06
2022-12-22T11:19:14.704Z,9.22
2022-12-22T11:20:14.821Z,9.16
2022-12-22T11:21:18.708Z,9.16
2022-12-22T11:22:14.743Z,9.16
2022-12-22T11:23:14.541Z,9.22
2022-12-22T11:24:14.826Z,9.08
2022-12-22T11:25:14.822Z,9.19
2022-12-22T11:26:14.832Z,9.19
2022-12-22T11:27:14.876Z,9.19
2022-12-22T11:28:14.873Z,9.18
2022-12-22T11:29:14.892Z,9.21
2022-12-22T11:30:14.739Z,9.18
2022-12-22T11:31:15.173Z,9.25
2022-12-22T11:32:14.676Z,9.19
2022-12-22T11:33:14.911Z,9.21
2022-12-22T11:34:23.717Z,9.16
2022-12-22T11:35:14.712Z,9.1
2022-12-22T11:36:14.953Z,9.19
2022-12-22T11:37:15.005Z,9.14
2022-12-22T11:38:15.003Z,9.14
2022-12-22T11:39:14.789Z,9.18
2022-12-22T11:40:15.047Z,9.14
2022-12-22T11:41:15.082Z,9.22
2022-12-22T11:42:15.061Z,9.14
2022-12-22T11:43:15.078Z,9.18
2022-12-22T11:44:14.822Z,9.22
2022-12-22T11:45:15.129Z,9.13
2022-12-22T11:46:15.005Z,9.19
2022-12-22T11:47:14.871Z,9.21
2022-12-22T11:48:15.151Z,9.16
2022-12-22T11:49:15.107Z,9.14
2022-12-22T11:51:13.579Z,9.14
2022-12-22T11:51:34.145Z,9.28
2022-12-22T11:52:34.033Z,9.26
2022-12-22T11:53:35.468Z,9.18
2022-12-22T11:54:34.903Z,9.21
2022-12-22T11:55:33.994Z,9.19
2022-12-22T11:56:35.039Z,9.21
2022-12-22T11:57:35.182Z,9.29
2022-12-22T11:58:34.763Z,9.26
2022-12-22T11:59:33.869Z,9.21
2022-12-22T12:01:26.111Z,9.25
2022-12-22T12:01:36.903Z,9.22
2022-12-22T12:02:36.865Z,9.19
2022-12-22T12:03:36.898Z,9.21
2022-12-22T12:04:37.205Z,9.11
2022-12-22T12:05:36.788Z,9.13
2022-12-22T12:06:36.765Z,9.22
2022-12-22T12:07:36.262Z,9.14
2022-12-22T12:08:36.785Z,9.19
2022-12-22T12:09:36.841Z,9.32
2022-12-22T12:10:36.581Z,9.22
2022-12-22T12:11:36.586Z,9.22
2022-12-22T12:12:36.630Z,9.29
2022-12-22T12:13:42.304Z,9.19
2022-12-22T12:14:36.880Z,9.26
2022-12-22T12:15:37.189Z,9.28
2022-12-22T12:16:37.216Z,9.29
2022-12-22T12:17:36.695Z,9.29
2022-12-22T12:18:36.695Z,9.25
2022-12-22T12:19:36.961Z,9.14
2022-12-22T12:20:36.989Z,9.28
2022-12-22T12:21:37.000Z,9.29
2022-12-22T12:22:37.016Z,9.28
2022-12-22T12:23:37.010Z,9.22
2022-12-22T12:24:36.561Z,9.31
2022-12-22T12:25:37.095Z,9.21
2022-12-22T12:26:37.062Z,9.22
2022-12-22T12:27:36.832Z,9.31
2022-12-22T12:28:37.119Z,9.29
2022-12-22T12:29:37.124Z,9.32
2022-12-22T12:30:44.826Z,9.29
2022-12-22T12:31:37.254Z,9.28
2022-12-22T12:32:37.191Z,9.31
2022-12-22T12:33:37.174Z,9.26
2022-12-22T12:34:37.193Z,9.29
2022-12-22T12:35:36.705Z,9.26
2022-12-22T12:36:37.216Z,9.25
2022-12-22T12:37:37.262Z,9.29
2022-12-22T12:39:12.224Z,9.19
2022-12-22T12:39:37.272Z,9.31
2022-12-22T12:40:37.298Z,9.26
2022-12-22T12:41:37.062Z,9.29
2022-12-22T12:42:37.319Z,9.19
2022-12-22T12:43:37.329Z,9.29
2022-12-22T12:44:37.431Z,9.26
2022-12-22T12:45:37.417Z,9.25
2022-12-22T12:46:37.533Z,9.25
2022-12-22T12:47:37.376Z,9.28
2022-12-22T12:48:37.167Z,9.25
2022-12-22T12:49:37.174Z,9.21
2022-12-22T12:50:36.941Z,9.25
2022-12-22T12:51:37.450Z,9.25
2022-12-22T12:52:37.265Z,9.28
2022-12-22T12:53:37.219Z,9.23
2022-12-22T12:54:37.525Z,9.34
2022-12-22T12:55:38.145Z,9.26
2022-12-22T12:56:37.555Z,9.32
2022-12-22T12:57:37.562Z,9.25
2022-12-22T12:58:37.368Z,9.31
2022-12-22T12:59:37.567Z,9.34
2022-12-22T13:00:43.286Z,9.31
2022-12-22T13:01:38.039Z,9.28
2022-12-22T13:02:38.583Z,9.32
2022-12-22T13:04:08.631Z,9.31
2022-12-22T13:04:37.961Z,9.32
2022-12-22T13:05:37.672Z,9.29
2022-12-22T13:06:37.673Z,9.31
2022-12-22T13:07:37.705Z,9.29
2022-12-22T13:08:37.702Z,9.31
2022-12-22T13:09:55.555Z,9.28
2022-12-22T13:10:37.488Z,9.32
2022-12-22T13:12:24.366Z,9.28
2022-12-22T13:12:37.822Z,9.29
2022-12-22T13:13:37.710Z,9.36
2022-12-22T13:14:37.923Z,9.34
2022-12-22T13:15:38.103Z,9.32
2022-12-22T13:16:38.233Z,9.29
2022-12-22T13:17:38.247Z,9.36
2022-12-22T13:18:38.026Z,9.34
2022-12-22T13:19:37.989Z,9.32
2022-12-22T13:20:37.978Z,9.32